Time;durP1;ratioP1;P1;durP2;ratioP2;P2;SDS_P1;SDS_P2;PMS_P1;PMS_P2;Temp;Humidity;BMP_temperature;BMP_pressure;BME280_temperature;BME280_humidity;BME280_pressure;Samples;Min_cycle;Max_cycle;Signal;HPM_P1;HPM_P2
2023/06/18 00:00:11;;;;;;;0.50;0.20;;;;;;;16.72;73.38;99971.47;5033474;28;20464;-51
2023/06/18 00:02:38;;;;;;;0.50;0.20;;;;;;;16.57;74.55;99957.06;5033222;28;20941;-51
2023/06/18 00:05:05;;;;;;;0.50;0.20;;;;;;;16.55;74.83;99963.50;5033336;28;20468;-51
2023/06/18 00:07:31;;;;;;;0.50;0.20;;;;;;;16.14;76.20;99961.38;5033485;28;20466;-51
2023/06/18 00:09:58;;;;;;;0.50;0.20;;;;;;;16.35;75.50;99961.97;5033327;28;20549;-51
2023/06/18 00:12:24;;;;;;;0.50;0.20;;;;;;;16.27;75.98;99964.22;5032653;28;21038;-51
2023/06/18 00:14:51;;;;;;;0.50;0.30;;;;;;;16.24;75.75;99959.91;5033248;28;20477;-51
2023/06/18 00:17:17;;;;;;;0.50;0.20;;;;;;;16.70;74.48;99959.06;5032798;28;20531;-51
2023/06/18 00:19:44;;;;;;;0.50;0.20;;;;;;;16.34;75.61;99962.06;5032855;28;21007;-51
2023/06/18 00:22:14;;;;;;;0.50;0.30;;;;;;;16.21;76.08;99964.59;5032985;28;20546;-52
2023/06/18 00:24:41;;;;;;;0.50;0.20;;;;;;;15.95;76.98;99966.06;5031194;28;20518;-50
2023/06/18 00:27:07;;;;;;;0.50;0.20;;;;;;;15.95;77.46;99963.38;5032743;28;20488;-51
2023/06/18 00:29:35;;;;;;;0.50;0.20;;;;;;;16.08;76.81;99964.41;5032682;28;20547;-51
2023/06/18 00:32:02;;;;;;;0.50;0.20;;;;;;;15.91;77.16;99965.38;5035986;28;20468;-51
2023/06/18 00:34:32;;;;;;;0.50;0.20;;;;;;;15.67;78.74;99967.59;5032493;28;20467;-50
2023/06/18 00:37:00;;;;;;;0.50;0.20;;;;;;;15.80;78.54;99964.22;5032646;28;20495;-51
2023/06/18 00:39:26;;;;;;;0.47;0.20;;;;;;;15.74;78.38;99964.56;5032564;28;20467;-51
2023/06/18 00:41:53;;;;;;;0.50;0.20;;;;;;;15.55;79.26;99957.50;5032621;28;20503;-51
2023/06/18 00:44:22;;;;;;;0.50;0.20;;;;;;;15.50;79.45;99956.91;5032103;28;20498;-51
2023/06/18 00:46:51;;;;;;;0.40;0.20;;;;;;;15.33;79.98;99941.72;5056041;23;20518;-50
2023/06/18 00:49:18;;;;;;;0.50;0.20;;;;;;;15.67;78.97;99953.31;5050001;28;20467;-50
2023/06/18 00:51:46;;;;;;;0.40;0.20;;;;;;;15.56;79.78;99939.59;5052155;28;20556;-50
2023/06/18 00:54:14;;;;;;;0.50;0.20;;;;;;;15.10;81.77;99947.44;5052249;28;20557;-49
2023/06/18 00:56:50;;;;;;;0.40;0.20;;;;;;;14.90;82.98;99945.78;5052127;28;20498;-50
2023/06/18 00:59:22;;;;;;;0.40;0.20;;;;;;;15.37;81.13;99945.13;5051986;28;20469;-50
2023/06/18 01:01:53;;;;;;;0.50;0.20;;;;;;;15.49;80.44;99943.56;5051376;28;20474;-50
2023/06/18 01:04:22;;;;;;;0.40;0.20;;;;;;;15.79;79.37;99946.44;5049414;28;20469;-50
2023/06/18 01:06:52;;;;;;;0.50;0.30;;;;;;;15.75;79.79;99958.25;5051840;28;20817;-50
2023/06/18 01:09:21;;;;;;;0.50;0.40;;;;;;;15.66;79.77;99965.84;5051819;28;20471;-50
2023/06/18 01:11:52;;;;;;;0.50;0.20;;;;;;;15.61;79.62;99965.22;5051758;28;20498;-50
2023/06/18 01:14:23;;;;;;;0.40;0.20;;;;;;;15.57;79.98;99968.13;5052062;28;20885;-50
2023/06/18 01:16:51;;;;;;;0.40;0.20;;;;;;;15.35;80.91;99968.41;5051352;28;20593;-50
2023/06/18 01:19:41;;;;;;;0.47;0.20;;;;;;;15.43;80.58;99971.56;5050906;28;20462;-50
2023/06/18 01:22:30;;;;;;;0.40;0.20;;;;;;;15.28;81.10;99980.41;5051938;28;20509;-50
2023/06/18 01:24:58;;;;;;;0.50;0.20;;;;;;;15.14;81.78;99964.22;5046398;28;20502;-50
2023/06/18 01:27:27;;;;;;;0.50;0.20;;;;;;;15.19;81.67;99967.50;5051412;28;20483;-50
2023/06/18 01:29:56;;;;;;;0.50;0.20;;;;;;;15.11;81.86;99960.75;5051778;28;20474;-50
2023/06/18 01:32:23;;;;;;;0.50;0.37;;;;;;;15.04;82.14;99953.09;5051440;28;20473;-50
2023/06/18 01:34:53;;;;;;;0.40;0.20;;;;;;;15.19;81.59;99943.41;5050938;28;20466;-49
2023/06/18 01:37:43;;;;;;;0.50;0.20;;;;;;;15.02;82.54;99947.84;5051561;28;20505;-50
2023/06/18 01:40:20;;;;;;;0.40;0.20;;;;;;;14.77;83.64;99939.34;5051649;28;20467;-50
2023/06/18 01:43:08;;;;;;;0.40;0.20;;;;;;;15.30;81.95;99941.88;5045217;28;20462;-50
2023/06/18 01:45:46;;;;;;;0.40;0.20;;;;;;;15.12;81.98;99937.53;5051675;28;20490;-50
2023/06/18 01:48:13;;;;;;;0.40;0.20;;;;;;;14.85;83.44;99942.50;5050798;28;21062;-49
2023/06/18 01:50:43;;;;;;;0.43;0.20;;;;;;;14.98;83.28;99951.63;5051772;28;20505;-50
2023/06/18 01:53:15;;;;;;;0.40;0.20;;;;;;;14.82;83.87;99942.66;5051895;28;20462;-50
2023/06/18 01:55:45;;;;;;;0.40;0.20;;;;;;;15.04;82.71;99939.72;5044060;28;20497;-50
2023/06/18 01:58:16;;;;;;;0.40;0.20;;;;;;;15.15;82.17;99945.38;5051166;28;20860;-49
2023/06/18 02:00:42;;;;;;;0.40;0.20;;;;;;;15.15;81.98;99940.03;5051673;28;20879;-50
2023/06/18 02:03:09;;;;;;;0.40;0.20;;;;;;;14.77;83.49;99947.38;5048989;28;20557;-50
2023/06/18 02:05:35;;;;;;;0.50;0.30;;;;;;;14.60;83.90;99934.88;5043306;28;20887;-49
2023/06/18 02:08:02;;;;;;;0.50;0.20;;;;;;;14.73;83.44;99940.44;5051360;28;20462;-49
2023/06/18 02:10:29;;;;;;;0.50;0.20;;;;;;;14.17;86.23;99938.78;5051598;28;20469;-49
2023/06/18 02:12:55;;;;;;;0.50;0.20;;;;;;;14.36;85.39;99944.06;5051365;28;20494;-49
2023/06/18 02:15:21;;;;;;;0.40;0.20;;;;;;;14.10;86.54;99940.00;5047231;28;20470;-49
2023/06/18 02:17:48;;;;;;;0.40;0.20;;;;;;;14.06;85.89;99944.63;5054984;28;20526;-50
2023/06/18 02:20:15;;;;;;;0.50;0.20;;;;;;;14.10;86.14;99945.34;5054672;28;20912;-49
2023/06/18 02:22:41;;;;;;;0.50;0.20;;;;;;;14.11;86.44;99942.59;5054810;28;20959;-50
2023/06/18 02:25:08;;;;;;;0.40;0.20;;;;;;;14.08;86.30;99941.88;5054986;28;20468;-50
2023/06/18 02:27:34;;;;;;;0.40;0.20;;;;;;;14.10;86.12;99942.69;5054178;28;20514;-50
2023/06/18 02:30:02;;;;;;;0.40;0.20;;;;;;;14.03;86.71;99949.28;5055000;28;20513;-50
2023/06/18 02:32:31;;;;;;;0.40;0.20;;;;;;;13.90;87.26;99940.97;5054856;28;20531;-50
2023/06/18 02:34:58;;;;;;;0.40;0.20;;;;;;;13.92;86.31;99933.75;5053984;28;20462;-49
2023/06/18 02:37:25;;;;;;;0.40;0.20;;;;;;;13.62;87.54;99925.41;5054792;28;20578;-50
2023/06/18 02:39:52;;;;;;;0.40;0.20;;;;;;;13.27;90.33;99925.19;5054735;28;20461;-49
2023/06/18 02:42:20;;;;;;;0.47;0.30;;;;;;;13.78;88.61;99930.88;5050797;28;20549;-49
2023/06/18 02:44:48;;;;;;;0.40;0.20;;;;;;;13.94;87.84;99926.53;5054663;28;20470;-50
2023/06/18 02:47:14;;;;;;;0.40;0.20;;;;;;;14.36;85.49;99933.38;5054389;28;20585;-50
2023/06/18 02:49:41;;;;;;;0.40;0.20;;;;;;;14.09;86.14;99939.13;5054325;28;20869;-50
2023/06/18 02:52:07;;;;;;;0.40;0.20;;;;;;;13.90;86.71;99928.47;5047082;28;20925;-50
2023/06/18 02:54:34;;;;;;;0.40;0.20;;;;;;;14.13;86.58;99935.41;5053869;28;20967;-50
2023/06/18 02:57:00;;;;;;;0.40;0.20;;;;;;;14.05;86.56;99934.91;5053901;28;21004;-50
2023/06/18 02:59:27;;;;;;;0.40;0.20;;;;;;;13.99;86.75;99940.56;5054377;28;20467;-50
2023/06/18 03:01:53;;;;;;;0.40;0.20;;;;;;;13.87;87.17;99941.13;5053380;28;20983;-50
2023/06/18 03:04:20;;;;;;;0.40;0.20;;;;;;;13.98;86.83;99946.84;5054331;28;20977;-50
2023/06/18 03:06:46;;;;;;;0.40;0.20;;;;;;;14.00;86.45;99944.94;5054143;28;20487;-50
2023/06/18 03:09:13;;;;;;;0.40;0.20;;;;;;;13.97;86.80;99950.41;5053995;28;20520;-48
2023/06/18 03:11:39;;;;;;;0.40;0.20;;;;;;;13.88;87.11;99953.56;5053023;28;20489;-49
2023/06/18 03:14:06;;;;;;;0.40;0.20;;;;;;;13.82;87.55;99948.47;5046458;28;20477;-49
2023/06/18 03:16:33;;;;;;;0.40;0.20;;;;;;;13.83;86.81;99953.75;5053760;28;20491;-49
2023/06/18 03:19:00;;;;;;;0.40;0.20;;;;;;;13.70;88.41;99955.25;5053522;28;20540;-49
2023/06/18 03:21:27;;;;;;;0.40;0.20;;;;;;;13.95;88.03;99946.97;5053986;28;20469;-49
2023/06/18 03:23:54;;;;;;;0.40;0.20;;;;;;;13.93;87.42;99940.81;5053575;28;20925;-49
2023/06/18 03:26:21;;;;;;;0.40;0.20;;;;;;;13.94;87.31;99943.41;5052117;28;20497;-49
2023/06/18 03:28:48;;;;;;;0.40;0.20;;;;;;;13.78;88.45;99941.56;5053606;28;20463;-48
2023/06/18 03:31:15;;;;;;;0.40;0.20;;;;;;;13.75;89.58;99945.25;5053658;28;20516;-49
2023/06/18 03:33:42;;;;;;;0.40;0.20;;;;;;;13.74;89.74;99946.19;5053280;28;20533;-49
2023/06/18 03:36:08;;;;;;;0.40;0.20;;;;;;;13.92;88.81;99949.78;5053133;28;20483;-49
2023/06/18 03:38:35;;;;;;;0.40;0.20;;;;;;;14.29;87.23;99953.34;5053448;28;20490;-49
2023/06/18 03:41:01;;;;;;;0.40;0.20;;;;;;;13.97;88.31;99942.41;5053405;28;20469;-48
2023/06/18 03:43:30;;;;;;;0.40;0.20;;;;;;;13.89;88.68;99947.25;5053221;28;20591;-49
2023/06/18 03:45:57;;;;;;;0.40;0.20;;;;;;;13.92;89.01;99939.09;5047273;28;20495;-49
2023/06/18 03:48:25;;;;;;;0.40;0.20;;;;;;;13.97;88.32;99939.72;5053530;28;20804;-48
2023/06/18 03:50:51;;;;;;;0.40;0.20;;;;;;;14.16;87.93;99945.94;5053401;28;20462;-49
2023/06/18 03:53:17;;;;;;;0.40;0.20;;;;;;;14.15;87.90;99943.34;5053188;28;20497;-49
2023/06/18 03:55:47;;;;;;;0.40;0.20;;;;;;;14.05;88.10;99950.06;5052922;28;20473;-49
2023/06/18 03:58:14;;;;;;;0.40;0.20;;;;;;;14.11;88.00;99955.09;5052987;28;20907;-49
2023/06/18 04:00:40;;;;;;;0.40;0.20;;;;;;;13.97;88.35;99960.25;5045839;28;20532;-50
2023/06/18 04:03:07;;;;;;;0.40;0.20;;;;;;;13.98;89.34;99964.66;5048615;28;20462;-49
2023/06/18 04:05:34;;;;;;;0.40;0.20;;;;;;;13.93;89.88;99965.75;5052412;28;20528;-49
2023/06/18 04:08:00;;;;;;;0.40;0.20;;;;;;;13.77;90.67;99972.75;5052714;28;20462;-49
2023/06/18 04:10:27;;;;;;;0.40;0.20;;;;;;;13.72;90.75;99976.59;5052871;28;20462;-49
2023/06/18 04:12:53;;;;;;;0.40;0.20;;;;;;;13.84;90.36;99976.88;5052750;28;20462;-49
2023/06/18 04:15:20;;;;;;;0.40;0.20;;;;;;;13.81;90.17;99974.34;5050103;28;20508;-48
2023/06/18 04:17:47;;;;;;;0.40;0.20;;;;;;;13.97;90.02;99973.59;5048333;28;20498;-50
2023/06/18 04:20:14;;;;;;;0.40;0.20;;;;;;;14.23;89.08;99968.75;5052624;28;20804;-49
2023/06/18 04:22:41;;;;;;;0.40;0.20;;;;;;;14.19;89.31;99969.84;5052701;28;20869;-48
2023/06/18 04:25:08;;;;;;;0.40;0.20;;;;;;;14.23;88.33;99970.53;5052728;28;20470;-53
2023/06/18 04:27:34;;;;;;;0.40;0.20;;;;;;;14.59;87.54;99969.72;5052482;28;20975;-49
2023/06/18 04:30:01;;;;;;;0.40;0.20;;;;;;;15.12;85.78;99980.34;5053006;28;20474;-49
2023/06/18 04:32:27;;;;;;;0.40;0.20;;;;;;;15.29;84.67;99980.31;5052033;28;20470;-49
2023/06/18 04:34:54;;;;;;;0.40;0.20;;;;;;;15.65;83.46;99977.53;5053621;28;20466;-50
2023/06/18 04:37:20;;;;;;;0.40;0.20;;;;;;;16.04;82.57;99978.09;5052729;28;20565;-49
2023/06/18 04:39:47;;;;;;;0.40;0.20;;;;;;;16.40;80.75;99969.75;5053158;28;20952;-50
2023/06/18 04:42:13;;;;;;;0.40;0.20;;;;;;;16.52;80.14;99974.41;5052157;28;20471;-50
2023/06/18 04:44:40;;;;;;;0.40;0.20;;;;;;;16.81;78.64;99968.22;5052660;28;20505;-50
2023/06/18 04:47:06;;;;;;;0.40;0.20;;;;;;;16.97;77.44;99970.00;5051004;28;20560;-49
2023/06/18 04:49:34;;;;;;;0.40;0.20;;;;;;;16.91;77.01;99965.88;5052507;28;20462;-49
2023/06/18 04:52:01;;;;;;;0.40;0.20;;;;;;;16.86;77.39;99962.59;5048102;28;20467;-50
2023/06/18 04:54:27;;;;;;;0.50;0.20;;;;;;;17.05;77.15;99970.41;5045061;28;20477;-50
2023/06/18 04:56:57;;;;;;;0.40;0.20;;;;;;;17.36;76.07;99977.47;5043238;28;20491;-50
2023/06/18 04:59:24;;;;;;;0.40;0.20;;;;;;;17.54;75.67;99975.44;5044633;28;20498;-49
2023/06/18 05:01:51;;;;;;;0.40;0.20;;;;;;;17.87;74.17;99975.19;5052991;28;20462;-50
2023/06/18 05:04:18;;;;;;;0.50;0.20;;;;;;;18.15;72.87;99976.97;5052146;28;20494;-49
2023/06/18 05:06:45;;;;;;;0.50;0.20;;;;;;;18.05;73.06;99965.94;5052177;28;20490;-54
2023/06/18 05:09:12;;;;;;;0.40;0.20;;;;;;;17.88;73.14;99975.09;5051974;28;20467;-49
2023/06/18 05:11:38;;;;;;;0.50;0.20;;;;;;;17.90;73.15;99970.47;5052491;28;20471;-49
2023/06/18 05:14:05;;;;;;;0.50;0.20;;;;;;;18.09;73.04;99966.59;5051129;28;20463;-50
2023/06/18 05:16:32;;;;;;;0.50;0.20;;;;;;;18.70;69.81;99957.22;5052502;28;20495;-49
2023/06/18 05:18:59;;;;;;;0.47;0.20;;;;;;;19.14;68.69;99963.09;5051866;28;20490;-50
2023/06/18 05:21:25;;;;;;;0.50;0.20;;;;;;;19.16;69.39;99971.94;5051564;28;20467;-50
2023/06/18 05:23:52;;;;;;;0.50;0.20;;;;;;;18.86;69.33;99964.13;5051765;28;20478;-49
2023/06/18 05:26:20;;;;;;;0.50;0.20;;;;;;;19.23;68.63;99967.00;5051405;28;20999;-50
2023/06/18 05:28:48;;;;;;;0.47;0.30;;;;;;;19.34;67.78;99967.13;5052073;28;20469;-50
2023/06/18 05:31:15;;;;;;;0.50;0.20;;;;;;;19.51;67.29;99968.63;5051658;28;20549;-49
2023/06/18 05:33:41;;;;;;;0.50;0.20;;;;;;;19.33;67.16;99975.31;5051743;28;20466;-50
2023/06/18 05:36:08;;;;;;;0.50;0.20;;;;;;;19.55;67.07;99978.25;5046796;28;20573;-50
2023/06/18 05:38:34;;;;;;;0.50;0.20;;;;;;;19.51;67.56;99971.31;5051461;28;20874;-50
2023/06/18 05:41:01;;;;;;;0.50;0.20;;;;;;;19.22;67.82;99978.75;5049143;28;20470;-50
2023/06/18 05:43:28;;;;;;;0.50;0.20;;;;;;;18.93;68.59;99978.06;5051587;28;20854;-50
2023/06/18 05:45:54;;;;;;;0.50;0.20;;;;;;;19.01;68.64;99983.78;5051503;28;20482;-50
2023/06/18 05:48:21;;;;;;;0.47;0.20;;;;;;;19.17;68.42;99984.44;5044953;28;20470;-50
2023/06/18 05:50:48;;;;;;;0.50;0.20;;;;;;;19.20;67.83;99978.88;5055487;28;20462;-50
2023/06/18 05:53:15;;;;;;;0.50;0.20;;;;;;;19.37;66.54;99982.22;5055363;28;20493;-50
2023/06/18 05:55:41;;;;;;;0.40;0.20;;;;;;;19.72;65.96;99977.91;5049888;28;20481;-50
2023/06/18 05:58:08;;;;;;;0.50;0.20;;;;;;;19.81;65.53;99984.50;5055419;28;20498;-50
2023/06/18 06:00:35;;;;;;;0.50;0.20;;;;;;;19.93;64.94;99982.75;5054800;28;20553;-50
2023/06/18 06:03:01;;;;;;;1.90;1.40;;;;;;;20.11;63.71;99984.09;5054986;28;20473;-50
2023/06/18 06:05:28;;;;;;;0.50;0.20;;;;;;;20.44;62.03;99979.94;5054653;28;20474;-50
2023/06/18 06:07:55;;;;;;;0.50;0.20;;;;;;;20.53;62.18;99993.59;5055270;28;20995;-50
2023/06/18 06:10:22;;;;;;;0.50;0.20;;;;;;;20.36;63.07;99992.13;5047161;28;20496;-50
2023/06/18 06:12:49;;;;;;;0.50;0.20;;;;;;;20.84;62.80;99994.03;5055266;28;20471;-50
2023/06/18 06:15:16;;;;;;;0.50;0.20;;;;;;;20.67;62.24;99989.88;5047576;28;20482;-50
2023/06/18 06:17:43;;;;;;;0.50;0.20;;;;;;;20.68;62.72;99988.88;5054949;28;20548;-50
2023/06/18 06:20:10;;;;;;;0.50;0.20;;;;;;;21.23;60.71;99984.66;5054744;28;20573;-50
2023/06/18 06:22:36;;;;;;;0.50;0.20;;;;;;;20.83;61.65;99989.56;5054174;28;20989;-50
2023/06/18 06:25:03;;;;;;;0.50;0.20;;;;;;;21.27;60.39;99980.81;5050656;28;20584;-50
2023/06/18 06:27:30;;;;;;;0.50;0.20;;;;;;;21.12;59.99;99979.25;5054867;28;20950;-50
2023/06/18 06:29:57;;;;;;;0.40;0.20;;;;;;;21.05;60.74;99981.56;5054859;28;20533;-50
2023/06/18 06:32:23;;;;;;;0.50;0.20;;;;;;;21.33;59.80;99987.56;5046534;28;20466;-50
2023/06/18 06:34:50;;;;;;;0.50;0.20;;;;;;;21.43;60.24;99993.97;5047236;28;20593;-50
2023/06/18 06:37:16;;;;;;;0.50;0.20;;;;;;;21.82;58.72;99990.81;5054059;28;20539;-50
2023/06/18 06:39:42;;;;;;;0.50;0.20;;;;;;;21.64;58.67;99988.72;5051949;28;20490;-51
2023/06/18 06:42:10;;;;;;;0.50;0.20;;;;;;;22.02;59.38;99997.34;5051044;28;20467;-50
2023/06/18 06:44:37;;;;;;;0.50;0.30;;;;;;;22.15;56.44;99986.41;5052202;28;20549;-50
2023/06/18 06:47:04;;;;;;;0.50;0.20;;;;;;;21.93;58.53;99987.28;5053980;28;20526;-48
2023/06/18 06:49:30;;;;;;;0.50;0.20;;;;;;;21.80;57.99;99983.81;5051099;28;20494;-49
2023/06/18 06:51:57;;;;;;;0.50;0.20;;;;;;;22.23;55.76;99988.50;5054291;28;20588;-49
2023/06/18 06:54:23;;;;;;;0.50;0.20;;;;;;;22.01;55.09;99982.06;5054503;28;20512;-49
2023/06/18 06:56:50;;;;;;;0.50;0.20;;;;;;;22.34;54.68;99985.75;5051711;28;20488;-48
2023/06/18 06:59:16;;;;;;;0.50;0.20;;;;;;;22.47;54.75;99984.59;5051140;28;20508;-48
2023/06/18 07:01:43;;;;;;;0.50;0.20;;;;;;;22.24;55.30;99987.50;5052049;28;20542;-50
2023/06/18 07:04:10;;;;;;;0.50;0.20;;;;;;;22.26;54.50;99994.50;5051882;28;20470;-48
2023/06/18 07:06:38;;;;;;;0.50;0.30;;;;;;;22.54;53.75;99981.41;5054186;28;20548;-47
2023/06/18 07:09:06;;;;;;;0.50;0.20;;;;;;;22.93;53.62;99988.06;5053678;28;20459;-50
2023/06/18 07:11:36;;;;;;;0.50;0.20;;;;;;;22.93;53.74;99991.66;5053932;28;20495;-48
2023/06/18 07:14:03;;;;;;;0.50;0.20;;;;;;;23.00;52.14;99991.97;5049629;28;20557;-49
2023/06/18 07:16:31;;;;;;;0.50;0.20;;;;;;;23.23;52.05;99984.59;5053684;28;20987;-49
2023/06/18 07:18:57;;;;;;;0.50;0.20;;;;;;;23.54;52.07;99986.34;5053984;28;20487;-50
2023/06/18 07:21:24;;;;;;;0.50;0.20;;;;;;;23.83;50.66;99989.25;5053907;28;20494;-48
2023/06/18 07:23:51;;;;;;;0.50;0.30;;;;;;;23.86;49.96;99994.44;5053874;28;20536;-49
2023/06/18 07:26:17;;;;;;;0.50;0.20;;;;;;;23.73;52.04;99988.38;5053585;28;20552;-48
2023/06/18 07:28:44;;;;;;;0.50;0.30;;;;;;;23.91;51.69;99989.44;5049212;28;20455;-49
2023/06/18 07:31:10;;;;;;;0.50;0.30;;;;;;;23.71;50.69;99990.34;5046550;28;20528;-48
2023/06/18 07:33:37;;;;;;;0.50;0.20;;;;;;;23.77;51.29;99987.09;5033140;28;20471;-49
2023/06/18 07:36:03;;;;;;;0.50;0.23;;;;;;;23.75;50.45;99990.94;5050036;28;21015;-48
2023/06/18 07:38:30;;;;;;;0.93;0.83;;;;;;;23.84;50.51;99987.38;5050699;28;20807;-48
2023/06/18 07:40:56;;;;;;;0.50;0.20;;;;;;;24.27;49.37;99989.00;5051032;28;20503;-49
2023/06/18 07:43:23;;;;;;;0.50;0.20;;;;;;;24.27;48.96;99994.44;5050882;28;20494;-48
2023/06/18 07:45:49;;;;;;;0.50;0.30;;;;;;;24.23;48.64;99983.81;5047032;28;20544;-49
2023/06/18 07:48:17;;;;;;;0.50;0.20;;;;;;;24.47;48.85;99991.66;5049569;28;20478;-49
2023/06/18 07:50:44;;;;;;;0.70;0.63;;;;;;;24.94;48.02;99983.66;5046843;28;20471;-49
2023/06/18 07:53:10;;;;;;;0.50;0.20;;;;;;;24.86;47.26;99978.09;5024001;28;20463;-51
2023/06/18 07:55:36;;;;;;;0.50;0.20;;;;;;;24.80;47.26;99978.66;5047759;28;20529;-49
2023/06/18 07:58:03;;;;;;;0.50;0.20;;;;;;;24.57;48.47;99975.38;5043339;28;20463;-52
2023/06/18 08:00:29;;;;;;;0.50;0.20;;;;;;;25.05;47.88;99971.81;5045320;28;20494;-48
2023/06/18 08:02:56;;;;;;;0.50;0.20;;;;;;;25.18;47.65;99968.81;5043220;28;20472;-49
2023/06/18 08:05:22;;;;;;;0.50;0.30;;;;;;;25.14;46.95;99965.53;5051018;28;20481;-49
2023/06/18 08:07:49;;;;;;;0.50;0.20;;;;;;;25.75;46.44;99965.09;5046480;28;20498;-50
2023/06/18 08:10:15;;;;;;;0.50;0.20;;;;;;;26.01;45.00;99959.84;5046454;28;20472;-48
2023/06/18 08:12:42;;;;;;;0.50;0.20;;;;;;;25.93;45.20;99959.75;5050287;28;20466;-49
2023/06/18 08:15:10;;;;;;;0.50;0.30;;;;;;;26.47;43.75;99964.34;5046885;28;21010;-48
2023/06/18 08:17:36;;;;;;;0.50;0.30;;;;;;;25.85;44.26;99955.03;5052834;28;20478;-48
2023/06/18 08:20:04;;;;;;;0.60;0.43;;;;;;;26.41;43.78;99964.94;5051779;28;20987;-49
2023/06/18 08:22:31;;;;;;;0.50;0.30;;;;;;;26.40;44.09;99957.78;5048229;28;20472;-48
2023/06/18 08:24:57;;;;;;;0.50;0.20;;;;;;;26.37;44.59;99952.66;5049900;28;20467;-49
2023/06/18 08:27:24;;;;;;;0.50;0.20;;;;;;;26.17;43.48;99956.44;5052449;28;21003;-48
2023/06/18 08:29:50;;;;;;;0.83;0.83;;;;;;;26.25;43.28;99954.69;5052608;28;20463;-49
2023/06/18 08:32:17;;;;;;;0.50;0.20;;;;;;;26.71;43.96;99958.28;5049278;28;20477;-49
2023/06/18 08:34:45;;;;;;;0.50;0.20;;;;;;;26.57;42.31;99951.50;5047165;28;20481;-48
2023/06/18 08:37:12;;;;;;;0.50;0.20;;;;;;;26.74;41.97;99949.81;5051805;28;20771;-49
2023/06/18 08:39:39;;;;;;;0.50;0.30;;;;;;;26.82;41.88;99938.94;5048268;28;20514;-49
2023/06/18 08:42:06;;;;;;;0.50;0.30;;;;;;;26.42;41.85;99944.00;5049294;28;20564;-49
2023/06/18 08:44:34;;;;;;;0.50;0.20;;;;;;;26.67;41.76;99942.38;5049928;28;20470;-49
2023/06/18 08:47:03;;;;;;;0.50;0.20;;;;;;;26.83;41.05;99937.94;5051504;28;21017;-49
2023/06/18 08:49:31;;;;;;;0.50;0.30;;;;;;;27.33;41.00;99936.50;5046824;28;20462;-49
2023/06/18 08:52:00;;;;;;;0.50;0.20;;;;;;;27.61;39.74;99929.00;5045042;28;20475;-49
2023/06/18 08:54:34;;;;;;;7.20;0.63;;;;;;;27.88;39.77;99937.03;5049192;28;20584;-49
2023/06/18 08:57:05;;;;;;;0.50;0.30;;;;;;;28.04;40.14;99937.09;5047045;28;20478;-49
2023/06/18 08:59:34;;;;;;;0.50;0.20;;;;;;;27.69;39.21;99937.28;5051863;28;20521;-49
2023/06/18 09:02:01;;;;;;;0.50;0.30;;;;;;;27.31;40.23;99936.66;5051339;28;20462;-49
2023/06/18 09:04:29;;;;;;;0.50;0.27;;;;;;;27.26;40.70;99936.28;5051174;28;20887;-48
2023/06/18 09:06:57;;;;;;;0.50;0.20;;;;;;;27.49;40.34;99925.69;5051343;28;20537;-50
2023/06/18 09:09:25;;;;;;;0.50;0.30;;;;;;;27.58;40.55;99929.34;5050540;28;20462;-49
2023/06/18 09:11:51;;;;;;;0.50;0.30;;;;;;;27.28;40.49;99933.41;5047888;28;20470;-49
2023/06/18 09:14:18;;;;;;;0.50;0.30;;;;;;;27.57;40.36;99924.88;5050729;28;20525;-48
2023/06/18 09:16:44;;;;;;;0.50;0.30;;;;;;;27.40;39.43;99923.91;5050736;28;20582;-49
2023/06/18 09:19:12;;;;;;;0.50;0.30;;;;;;;27.44;39.51;99928.91;5045518;28;20491;-49
2023/06/18 09:21:41;;;;;;;0.50;0.20;;;;;;;27.35;39.58;99926.28;5050759;28;20473;-48
2023/06/18 09:24:19;;;;;;;0.50;0.23;;;;;;;27.74;39.76;99915.78;5050799;28;20494;-50
2023/06/18 09:27:00;;;;;;;0.50;0.30;;;;;;;27.76;38.96;99924.66;5051476;28;20487;-50
2023/06/18 09:29:28;;;;;;;0.50;0.30;;;;;;;28.26;38.98;99927.47;5051686;28;20556;-49
2023/06/18 09:31:55;;;;;;;0.50;0.20;;;;;;;28.24;38.13;99925.91;5051489;28;20466;-50
2023/06/18 09:34:22;;;;;;;0.50;0.30;;;;;;;28.38;38.39;99918.97;5050727;28;20477;-52
2023/06/18 09:36:50;;;;;;;0.50;0.30;;;;;;;27.81;39.07;99913.25;5051599;28;20490;-50
2023/06/18 09:39:25;;;;;;;0.50;0.20;;;;;;;28.18;38.77;99905.53;5051501;28;20491;-50
2023/06/18 09:41:54;;;;;;;0.50;0.30;;;;;;;28.34;38.27;99915.69;5051549;28;20462;-50
2023/06/18 09:44:22;;;;;;;0.50;0.30;;;;;;;28.45;37.31;99903.59;5051089;28;20524;-50
2023/06/18 09:46:58;;;;;;;0.50;0.30;;;;;;;28.09;38.94;99900.19;5051481;28;20501;-50
2023/06/18 09:49:27;;;;;;;0.50;0.27;;;;;;;28.44;38.33;99899.13;5051850;28;20561;-50
2023/06/18 09:51:54;;;;;;;0.50;0.30;;;;;;;28.35;37.60;99894.66;5051329;28;20466;-49
2023/06/18 09:54:21;;;;;;;5.20;2.50;;;;;;;28.44;38.01;99893.66;5051465;28;20536;-50
2023/06/18 09:57:02;;;;;;;0.50;0.30;;;;;;;28.71;37.92;99885.16;5051199;28;20486;-50
2023/06/18 09:59:29;;;;;;;0.50;0.30;;;;;;;28.42;37.11;99892.97;5044450;28;20693;-50
2023/06/18 10:01:56;;;;;;;0.50;0.30;;;;;;;28.72;36.76;99886.00;5051391;28;20452;-51
2023/06/18 10:04:25;;;;;;;0.60;0.30;;;;;;;28.86;36.65;99893.53;5051285;28;20466;-49
2023/06/18 10:06:56;;;;;;;0.50;0.30;;;;;;;28.99;35.79;99898.53;5051223;28;20488;-50
2023/06/18 10:09:28;;;;;;;0.50;0.27;;;;;;;29.40;35.88;99889.22;5044736;28;20543;-50
2023/06/18 10:11:57;;;;;;;0.50;0.30;;;;;;;29.93;35.43;99890.44;5051632;28;20499;-49
2023/06/18 10:14:28;;;;;;;0.50;0.30;;;;;;;29.26;35.91;99883.59;5045921;28;20466;-49
2023/06/18 10:17:08;;;;;;;0.50;0.30;;;;;;;28.67;36.48;99886.53;5051380;28;20486;-49
2023/06/18 10:19:52;;;;;;;0.50;0.30;;;;;;;28.62;36.56;99892.47;5051280;28;20547;-49
2023/06/18 10:22:20;;;;;;;1.43;1.33;;;;;;;29.07;36.15;99887.56;5051354;28;20931;-49
2023/06/18 10:24:56;;;;;;;0.50;0.30;;;;;;;29.45;35.04;99877.72;5051351;28;20554;-49
2023/06/18 10:27:24;;;;;;;0.50;0.30;;;;;;;29.23;35.05;99890.28;5045820;28;20478;-49
2023/06/18 10:29:51;;;;;;;0.50;0.50;;;;;;;29.46;34.98;99890.38;5051314;28;20463;-49
2023/06/18 10:32:18;;;;;;;0.50;0.30;;;;;;;29.64;34.08;99892.97;5033041;28;20477;-49
2023/06/18 10:34:45;;;;;;;0.50;0.30;;;;;;;29.30;35.21;99887.69;5051787;28;20467;-49
2023/06/18 10:37:14;;;;;;;0.50;0.30;;;;;;;29.90;34.83;99871.63;5054464;28;21082;-51
2023/06/18 10:39:41;;;;;;;0.50;0.30;;;;;;;29.93;34.02;99870.41;5054802;28;20529;-50
2023/06/18 10:42:12;;;;;;;0.50;0.30;;;;;;;30.67;33.75;99875.28;5054676;28;20515;-49
2023/06/18 10:44:50;;;;;;;0.50;0.30;;;;;;;31.15;32.30;99873.16;5049145;28;20466;-49
2023/06/18 10:47:22;;;;;;;0.50;0.30;;;;;;;30.59;32.94;99871.72;5054502;28;20571;-49
2023/06/18 10:50:16;;;;;;;0.50;0.30;;;;;;;30.46;32.28;99866.84;5054816;28;20488;-49
2023/06/18 10:52:51;;;;;;;0.50;0.30;;;;;;;30.94;32.68;99873.84;5039790;28;20470;-50
2023/06/18 10:55:20;;;;;;;0.50;0.30;;;;;;;30.75;31.79;99866.16;5054396;28;20941;-49
2023/06/18 10:57:50;;;;;;;0.50;0.30;;;;;;;29.93;31.10;99859.44;5054112;28;20901;-49
2023/06/18 11:00:17;;;;;;;0.50;0.30;;;;;;;29.88;31.66;99854.50;5054104;28;20552;-49
2023/06/18 11:02:45;;;;;;;2.47;2.33;;;;;;;30.00;31.82;99849.44;5054273;28;20517;-49
2023/06/18 11:05:35;;;;;;;0.50;0.30;;;;;;;30.18;32.23;99835.50;5053633;28;20485;-50
2023/06/18 11:08:06;;;;;;;0.50;0.30;;;;;;;29.78;31.62;99832.78;5053950;28;20470;-49
2023/06/18 11:10:38;;;;;;;1.10;0.80;;;;;;;30.57;30.79;99838.13;5054527;28;20467;-49
2023/06/18 11:13:06;;;;;;;1.80;1.70;;;;;;;30.50;28.57;99831.66;5029775;28;20514;-50
2023/06/18 11:15:34;;;;;;;0.50;0.30;;;;;;;30.69;29.37;99833.94;5053798;28;20982;-50
2023/06/18 11:18:02;;;;;;;2.83;2.73;;;;;;;31.01;27.87;99816.31;5053687;28;20553;-50
2023/06/18 11:20:34;;;;;;;0.50;0.30;;;;;;;31.30;27.87;99828.41;5036341;28;20494;-50
2023/06/18 11:23:03;;;;;;;0.50;0.30;;;;;;;31.45;27.79;99830.09;5053884;28;20528;-49
2023/06/18 11:25:30;;;;;;;2.40;2.30;;;;;;;31.87;27.21;99823.06;5053835;28;20437;-49
2023/06/18 11:28:02;;;;;;;1.43;1.43;;;;;;;31.66;26.55;99825.72;5053647;28;20473;-50
2023/06/18 11:30:32;;;;;;;0.50;0.30;;;;;;;31.61;27.89;99830.94;5053744;28;20463;-49
2023/06/18 11:32:59;;;;;;;1.63;1.53;;;;;;;31.54;27.97;99825.38;5053343;28;20505;-49
2023/06/18 11:35:29;;;;;;;0.93;0.93;;;;;;;31.76;28.28;99820.81;5053916;28;20466;-50
2023/06/18 11:37:56;;;;;;;0.50;0.30;;;;;;;31.70;29.57;99813.31;5050281;28;20441;-50